Time;durP1;ratioP1;P1;durP2;ratioP2;P2;SDS_P1;SDS_P2;PMS_P1;PMS_P2;Temp;Humidity;BMP_temperature;BMP_pressure;BME280_temperature;BME280_humidity;BME280_pressure;Samples;Min_cycle;Max_cycle;Signal;HPM_P1;HPM_P2
2023/02/11 00:00:18;;;;;;;23.10;8.68;;;7.10;99.90;;;;;;7372776;19;20509;-60
2023/02/11 00:02:44;;;;;;;23.58;8.73;;;7.10;99.90;;;;;;7369830;19;20869;-61
2023/02/11 00:05:10;;;;;;;21.70;9.50;;;7.10;99.90;;;;;;7369523;19;20033;-59
2023/02/11 00:07:37;;;;;;;27.48;8.73;;;7.10;99.90;;;;;;7369427;19;20014;-60
2023/02/11 00:10:08;;;;;;;18.70;7.80;;;7.10;99.90;;;;;;7366424;19;20018;-60
2023/02/11 00:12:36;;;;;;;23.15;8.65;;;7.10;99.90;;;;;;7371528;19;20849;-61
2023/02/11 00:15:03;;;;;;;21.70;8.23;;;7.10;99.90;;;;;;7364725;19;20018;-60
2023/02/11 00:17:31;;;;;;;19.92;8.75;;;7.10;99.90;;;;;;7368731;19;20490;-59
2023/02/11 00:19:58;;;;;;;19.50;7.78;;;7.10;99.90;;;;;;7370377;19;20022;-59
2023/02/11 00:22:24;;;;;;;26.85;8.73;;;7.10;99.90;;;;;;7366035;19;20735;-59
2023/02/11 00:24:50;;;;;;;22.98;9.25;;;7.10;99.90;;;;;;7372488;19;20018;-59
2023/02/11 00:27:17;;;;;;;23.08;8.20;;;7.10;99.90;;;;;;7369510;19;20023;-61
2023/02/11 00:29:44;;;;;;;21.73;8.10;;;7.10;99.90;;;;;;7365972;19;20019;-59
2023/02/11 00:32:10;;;;;;;21.60;7.32;;;7.10;99.90;;;;;;7371473;19;20010;-59
2023/02/11 00:34:37;;;;;;;25.50;8.20;;;7.10;99.90;;;;;;7370472;19;20048;-61
2023/02/11 00:37:04;;;;;;;20.27;8.93;;;7.10;99.90;;;;;;7368408;19;20054;-59
2023/02/11 00:39:30;;;;;;;27.08;8.95;;;7.10;99.90;;;;;;7364942;19;20023;-59
2023/02/11 00:41:57;;;;;;;21.60;8.52;;;7.10;99.90;;;;;;7366003;19;20037;-60
2023/02/11 00:44:23;;;;;;;20.27;7.47;;;7.20;99.90;;;;;;7371424;19;20052;-59
2023/02/11 00:46:49;;;;;;;19.13;7.35;;;7.20;99.90;;;;;;7369730;19;20463;-59
2023/02/11 00:49:17;;;;;;;20.70;8.07;;;7.20;99.90;;;;;;7365270;19;20025;-61
2023/02/11 00:51:43;;;;;;;21.75;7.22;;;7.10;99.90;;;;;;7366894;19;20477;-62
2023/02/11 00:54:09;;;;;;;22.73;8.00;;;7.10;99.90;;;;;;7363049;19;20647;-61
2023/02/11 00:56:36;;;;;;;32.30;8.60;;;7.10;99.90;;;;;;7367732;19;20031;-61
2023/02/11 00:59:02;;;;;;;22.60;8.68;;;7.10;99.90;;;;;;7370211;19;20516;-59
2023/02/11 01:01:28;;;;;;;23.33;8.55;;;7.10;99.90;;;;;;7368836;19;20093;-59
2023/02/11 01:03:54;;;;;;;25.00;8.50;;;7.10;99.90;;;;;;7364471;19;20512;-60
2023/02/11 01:06:22;;;;;;;25.65;9.13;;;7.10;99.90;;;;;;7368568;19;20049;-60
2023/02/11 01:08:49;;;;;;;21.30;8.02;;;7.00;99.90;;;;;;7367130;19;20090;-59
2023/02/11 01:11:18;;;;;;;28.33;7.38;;;7.00;99.90;;;;;;7365403;19;20018;-59
2023/02/11 01:13:46;;;;;;;21.80;8.73;;;6.90;99.90;;;;;;7367093;19;20023;-62
2023/02/11 01:16:12;;;;;;;23.30;8.73;;;6.90;99.90;;;;;;7367264;19;20015;-61
2023/02/11 01:18:40;;;;;;;20.52;8.18;;;6.90;99.90;;;;;;7367460;19;20587;-59
2023/02/11 01:21:07;;;;;;;23.10;8.10;;;6.90;99.90;;;;;;7368407;19;20011;-59
2023/02/11 01:23:33;;;;;;;25.00;9.52;;;6.80;99.90;;;;;;7364542;19;20025;-59
2023/02/11 01:25:59;;;;;;;27.13;8.52;;;6.80;99.90;;;;;;7367178;19;20021;-59
2023/02/11 01:28:29;;;;;;;19.65;7.90;;;6.80;99.90;;;;;;7366704;19;20610;-59
2023/02/11 01:30:55;;;;;;;20.17;8.27;;;6.80;99.90;;;;;;7367105;19;20018;-59
2023/02/11 01:33:22;;;;;;;26.60;8.95;;;6.80;99.90;;;;;;7366046;19;20384;-59
2023/02/11 01:35:49;;;;;;;22.13;8.27;;;6.80;99.90;;;;;;7366552;19;20018;-59
2023/02/11 01:38:21;;;;;;;24.70;9.05;;;6.80;99.90;;;;;;7365696;19;20493;-59
2023/02/11 01:40:54;;;;;;;22.50;8.82;;;6.80;99.90;;;;;;7368148;19;20006;-59
2023/02/11 01:43:22;;;;;;;29.05;9.15;;;6.80;99.90;;;;;;7365965;19;20039;-60
2023/02/11 01:45:48;;;;;;;23.92;8.75;;;6.80;99.90;;;;;;7367876;19;20098;-59
2023/02/11 01:48:23;;;;;;;32.53;9.07;;;6.80;99.90;;;;;;7367378;19;20014;-61
2023/02/11 01:50:55;;;;;;;19.33;8.07;;;6.80;99.90;;;;;;7371590;19;20018;-59
2023/02/11 01:59:00;;;;;;;22.52;9.35;;;6.80;99.90;;;;;;7368541;19;20069;-61
2023/02/11 02:01:27;;;;;;;23.25;9.15;;;6.80;99.90;;;;;;7368769;19;21645;-59
2023/02/11 02:03:58;;;;;;;22.90;8.90;;;6.80;99.90;;;;;;7373936;19;20828;-61
2023/02/11 02:07:02;;;;;;;28.95;9.85;;;6.80;99.90;;;;;;7370728;19;20014;-61
2023/02/11 02:09:40;;;;;;;24.23;9.82;;;6.80;99.90;;;;;;7370986;19;20486;-59
2023/02/11 02:12:07;;;;;;;25.45;9.05;;;6.80;99.90;;;;;;7371081;19;20022;-59
2023/02/11 02:14:38;;;;;;;26.58;9.77;;;6.80;99.90;;;;;;7370501;19;20036;-61
2023/02/11 02:17:04;;;;;;;28.80;9.97;;;6.80;99.90;;;;;;7372267;19;20033;-59
2023/02/11 02:19:50;;;;;;;23.13;11.07;;;6.70;99.90;;;;;;7373733;19;20523;-61
2023/02/11 02:22:40;;;;;;;20.65;9.88;;;6.70;99.90;;;;;;7375043;19;20010;-61
2023/02/11 02:25:27;;;;;;;27.23;10.77;;;6.80;99.90;;;;;;7373442;19;20039;-61
2023/02/11 02:28:31;;;;;;;26.85;10.85;;;6.70;99.90;;;;;;7372289;19;20656;-61
2023/02/11 02:31:35;;;;;;;31.05;11.23;;;6.80;99.90;;;;;;7374198;19;20477;-61
2023/02/11 02:34:13;;;;;;;24.38;11.27;;;6.80;99.90;;;;;;7371272;19;20014;-61
2023/02/11 02:37:05;;;;;;;29.65;10.65;;;6.80;99.90;;;;;;7371958;19;20022;-61
2023/02/11 02:39:34;;;;;;;27.70;11.48;;;6.90;99.90;;;;;;7370641;19;20441;-60
2023/02/11 02:42:02;;;;;;;29.67;12.13;;;6.80;99.90;;;;;;7372206;19;20635;-61
2023/02/11 02:44:29;;;;;;;29.92;12.43;;;6.90;99.90;;;;;;7374009;19;20091;-60
2023/02/11 02:46:56;;;;;;;26.00;12.25;;;6.90;99.90;;;;;;7373879;19;20022;-60
2023/02/11 02:49:22;;;;;;;31.13;13.20;;;6.90;99.90;;;;;;7372407;19;20766;-60
2023/02/11 02:52:07;;;;;;;29.92;13.30;;;6.90;99.90;;;;;;7373752;19;20126;-60
2023/02/11 02:55:02;;;;;;;25.30;12.65;;;6.90;99.90;;;;;;7372143;19;20023;-61
2023/02/11 02:57:55;;;;;;;26.48;12.38;;;6.90;99.90;;;;;;7371553;19;20029;-59
2023/02/11 03:00:47;;;;;;;29.50;11.88;;;7.00;99.90;;;;;;7372397;19;20130;-60
2023/02/11 03:03:25;;;;;;;25.27;12.95;;;7.10;99.90;;;;;;7373785;19;20045;-62
2023/02/11 03:06:14;;;;;;;27.35;12.90;;;7.10;99.90;;;;;;7375286;19;20335;-62
2023/02/11 03:08:49;;;;;;;29.80;12.63;;;7.00;99.90;;;;;;7373570;19;20018;-62
2023/02/11 03:11:18;;;;;;;26.92;14.45;;;7.10;99.90;;;;;;7374061;19;20020;-60
2023/02/11 03:13:46;;;;;;;28.17;15.02;;;7.10;99.90;;;;;;7372100;19;20509;-60
2023/02/11 03:16:19;;;;;;;30.02;17.17;;;7.10;99.90;;;;;;7374844;19;20751;-61
2023/02/11 03:18:58;;;;;;;28.85;15.07;;;7.10;99.90;;;;;;7373812;19;20435;-60
2023/02/11 03:21:25;;;;;;;26.63;14.75;;;7.10;99.90;;;;;;7373070;19;20041;-60
2023/02/11 03:23:56;;;;;;;32.65;14.73;;;7.10;99.90;;;;;;7368021;19;20041;-62
2023/02/11 03:26:41;;;;;;;26.77;14.15;;;7.10;99.90;;;;;;7371930;19;20019;-60
2023/02/11 03:29:35;;;;;;;30.38;14.75;;;7.10;99.90;;;;;;7374124;19;20469;-60
2023/02/11 03:32:22;;;;;;;27.88;15.93;;;7.10;99.90;;;;;;7372383;19;20040;-61
2023/02/11 03:35:01;;;;;;;30.10;16.33;;;7.10;99.90;;;;;;7371213;19;20295;-59
2023/02/11 03:37:33;;;;;;;30.30;17.20;;;7.20;99.90;;;;;;7373461;19;20014;-62
2023/02/11 03:40:05;;;;;;;30.73;17.73;;;7.20;99.90;;;;;;7373160;19;20014;-62
2023/02/11 03:42:37;;;;;;;37.97;19.67;;;7.30;99.90;;;;;;7371652;19;20019;-60
2023/02/11 03:45:11;;;;;;;35.17;19.75;;;7.30;99.90;;;;;;7367579;19;20019;-60
2023/02/11 03:47:42;;;;;;;34.25;19.90;;;7.30;99.90;;;;;;7373021;19;20014;-60
2023/02/11 03:50:13;;;;;;;34.50;20.07;;;7.40;99.90;;;;;;7375422;19;20864;-60
2023/02/11 03:52:40;;;;;;;37.75;21.75;;;7.40;99.90;;;;;;7370525;19;20010;-60
2023/02/11 03:55:12;;;;;;;33.65;18.27;;;7.40;99.90;;;;;;7369566;19;20019;-60
2023/02/11 03:57:38;;;;;;;;;;;7.40;99.90;;;;;;7371481;19;20022;-60
2023/02/11 04:00:06;;;;;;;33.15;20.77;;;7.40;99.90;;;;;;7362065;19;19918;-62
2023/02/11 04:02:39;;;;;;;39.20;20.95;;;7.40;99.90;;;;;;7369869;19;20025;-59
2023/02/11 04:05:09;;;;;;;37.17;20.92;;;7.40;99.90;;;;;;7367540;19;20053;-60
2023/02/11 04:07:35;;;;;;;37.22;21.00;;;7.40;99.90;;;;;;7365555;19;20371;-59
2023/02/11 04:10:02;;;;;;;36.58;21.65;;;7.40;99.90;;;;;;7364673;19;20011;-61
2023/02/11 04:12:29;;;;;;;34.28;22.27;;;7.40;99.90;;;;;;7366768;19;20010;-62
2023/02/11 04:14:55;;;;;;;32.35;21.35;;;7.40;99.90;;;;;;7368360;19;20018;-61
2023/02/11 04:17:22;;;;;;;36.03;21.35;;;7.50;99.90;;;;;;7367708;19;20770;-60
2023/02/11 04:19:48;;;;;;;37.53;21.20;;;7.40;99.90;;;;;;7366642;19;20881;-61
2023/02/11 04:22:14;;;;;;;38.72;23.10;;;7.40;99.90;;;;;;7364838;19;20491;-62
2023/02/11 04:24:42;;;;;;;38.63;23.05;;;7.40;99.90;;;;;;7367927;19;20014;-62
2023/02/11 04:27:09;;;;;;;38.58;23.85;;;7.40;99.90;;;;;;7366948;19;21002;-62
2023/02/11 04:29:35;;;;;;;41.13;22.77;;;7.40;99.90;;;;;;7363410;19;20010;-60
2023/02/11 04:32:01;;;;;;;35.28;22.77;;;7.40;99.90;;;;;;7365333;19;20007;-62
2023/02/11 04:34:27;;;;;;;35.80;21.65;;;7.40;99.90;;;;;;7365249;19;20113;-60
2023/02/11 04:36:54;;;;;;;37.25;21.50;;;7.30;99.90;;;;;;7366218;19;20014;-60
2023/02/11 04:39:20;;;;;;;38.25;23.60;;;7.30;99.90;;;;;;7364339;19;20061;-62
2023/02/11 04:41:46;;;;;;;39.40;22.15;;;7.30;99.90;;;;;;7365964;19;20031;-61
2023/02/11 04:44:13;;;;;;;38.30;21.23;;;7.20;99.90;;;;;;7363514;19;20766;-61
2023/02/11 04:46:39;;;;;;;41.88;21.08;;;7.20;99.90;;;;;;7363794;19;20029;-62
2023/02/11 04:49:05;;;;;;;38.15;21.30;;;7.10;99.90;;;;;;7365625;19;20568;-60
2023/02/11 04:51:31;;;;;;;41.53;22.80;;;7.10;99.90;;;;;;7364900;19;20022;-60
2023/02/11 04:53:58;;;;;;;40.55;22.13;;;7.10;99.90;;;;;;7365196;19;20053;-61
2023/02/11 04:56:24;;;;;;;40.40;22.10;;;7.10;99.90;;;;;;7362096;19;20079;-61
2023/02/11 04:58:51;;;;;;;38.33;22.27;;;7.10;99.90;;;;;;7363801;19;20014;-61
2023/02/11 05:01:17;;;;;;;35.72;22.92;;;7.10;99.90;;;;;;7364122;19;20470;-62
2023/02/11 05:03:43;;;;;;;40.40;22.58;;;7.00;99.90;;;;;;7363500;19;20484;-62
2023/02/11 05:06:10;;;;;;;41.22;22.63;;;7.00;99.90;;;;;;7363635;19;20040;-61
2023/02/11 05:08:36;;;;;;;45.22;23.55;;;7.00;99.90;;;;;;7360476;19;20017;-61
2023/02/11 05:11:03;;;;;;;40.63;23.58;;;7.00;99.90;;;;;;7367317;19;20747;-60
2023/02/11 05:13:31;;;;;;;43.17;23.40;;;7.00;99.90;;;;;;7363238;19;20006;-60
2023/02/11 05:15:57;;;;;;;44.33;23.73;;;7.00;99.90;;;;;;7362411;19;21107;-60
2023/02/11 05:18:23;;;;;;;39.72;21.13;;;7.00;99.90;;;;;;7358207;19;20055;-61
2023/02/11 05:20:50;;;;;;;45.42;23.33;;;7.00;99.90;;;;;;7358864;19;20033;-60
2023/02/11 05:23:16;;;;;;;45.53;23.05;;;7.00;99.90;;;;;;7359068;19;20048;-60
2023/02/11 05:25:42;;;;;;;42.67;23.35;;;7.00;99.90;;;;;;7358587;19;20019;-60
2023/02/11 05:28:09;;;;;;;43.67;24.02;;;6.90;99.90;;;;;;7357687;19;20018;-60
2023/02/11 05:30:38;;;;;;;44.40;24.10;;;6.90;99.90;;;;;;7362825;19;21138;-61
2023/02/11 05:33:05;;;;;;;45.35;24.52;;;7.00;99.90;;;;;;7360521;19;20018;-62
2023/02/11 05:35:31;;;;;;;41.05;24.35;;;6.90;99.90;;;;;;7363182;19;20030;-61
2023/02/11 05:37:57;;;;;;;44.75;24.15;;;6.90;99.90;;;;;;7369416;19;20018;-60
2023/02/11 05:40:23;;;;;;;44.58;24.27;;;6.90;99.90;;;;;;7371997;19;20489;-60
2023/02/11 05:42:49;;;;;;;45.20;24.60;;;6.90;99.90;;;;;;7370250;19;20031;-59
2023/02/11 05:45:16;;;;;;;45.17;25.38;;;6.90;99.90;;;;;;7373470;19;22283;-60
2023/02/11 05:47:42;;;;;;;41.65;24.70;;;6.90;99.90;;;;;;7376646;19;20025;-60
2023/02/11 05:50:08;;;;;;;46.03;25.33;;;6.90;99.90;;;;;;7369147;19;20036;-59
2023/02/11 05:52:34;;;;;;;45.25;24.20;;;6.90;99.90;;;;;;7371551;19;20041;-59
2023/02/11 05:55:01;;;;;;;49.35;25.23;;;6.90;99.90;;;;;;7369183;19;20015;-62
2023/02/11 05:57:27;;;;;;;47.97;24.67;;;6.90;99.90;;;;;;7369912;19;20469;-62
2023/02/11 05:59:53;;;;;;;44.90;26.75;;;6.90;99.90;;;;;;7369647;19;20580;-60
2023/02/11 06:02:19;;;;;;;52.25;26.08;;;6.90;99.90;;;;;;7370522;19;20018;-62
2023/02/11 06:04:46;;;;;;;48.58;27.75;;;6.90;99.90;;;;;;7367346;19;20018;-62
2023/02/11 06:07:12;;;;;;;47.35;27.17;;;6.90;99.90;;;;;;7370172;19;20033;-61
2023/02/11 06:09:38;;;;;;;48.78;27.70;;;6.90;99.90;;;;;;7367833;19;20022;-60
2023/02/11 06:12:05;;;;;;;52.63;26.98;;;6.90;99.90;;;;;;7369972;19;20006;-59
2023/02/11 06:14:33;;;;;;;55.45;29.45;;;6.90;99.90;;;;;;7362990;19;20474;-60
2023/02/11 06:16:59;;;;;;;55.10;30.58;;;6.90;99.90;;;;;;7371297;19;20501;-62
2023/02/11 06:19:26;;;;;;;47.60;28.17;;;6.90;99.90;;;;;;7371439;19;20101;-61
2023/02/11 06:21:52;;;;;;;58.78;30.80;;;6.90;99.90;;;;;;7369571;19;20836;-61
2023/02/11 06:24:19;;;;;;;52.50;30.05;;;6.90;99.90;;;;;;7372641;19;20010;-60
2023/02/11 06:26:45;;;;;;;50.45;30.02;;;6.90;99.90;;;;;;7371813;19;20014;-60
2023/02/11 06:29:12;;;;;;;52.97;30.95;;;7.00;99.90;;;;;;7366231;19;20035;-61
2023/02/11 06:31:39;;;;;;;52.03;29.80;;;6.90;99.90;;;;;;7367341;19;20014;-58
2023/02/11 06:34:07;;;;;;;60.45;30.55;;;7.00;99.90;;;;;;7369127;19;20015;-62
2023/02/11 06:36:34;;;;;;;55.53;29.88;;;7.00;99.90;;;;;;7372172;19;20026;-60
2023/02/11 06:39:00;;;;;;;59.80;33.35;;;7.00;99.90;;;;;;7370319;19;20018;-59
2023/02/11 06:41:27;;;;;;;52.85;32.38;;;7.00;99.90;;;;;;7367016;19;20017;-59
2023/02/11 06:43:53;;;;;;;56.72;32.08;;;7.00;99.90;;;;;;7367090;19;20127;-61
2023/02/11 06:46:20;;;;;;;56.10;31.90;;;7.00;99.90;;;;;;7365880;19;20018;-61
2023/02/11 06:48:49;;;;;;;56.80;32.65;;;7.00;99.90;;;;;;7365414;19;20014;-60
2023/02/11 06:51:15;;;;;;;54.67;33.03;;;7.00;99.90;;;;;;7367090;19;20026;-59
2023/02/11 06:53:44;;;;;;;59.72;34.95;;;7.00;99.90;;;;;;7371525;19;20520;-59
2023/02/11 06:56:13;;;;;;;60.28;35.22;;;7.10;99.90;;;;;;7367676;19;20019;-61
2023/02/11 06:58:40;;;;;;;61.75;34.80;;;7.10;99.90;;;;;;7372012;19;22253;-61
2023/02/11 07:01:08;;;;;;;61.45;33.22;;;7.10;99.90;;;;;;7369259;19;20025;-62
2023/02/11 07:03:36;;;;;;;52.58;31.13;;;7.10;99.90;;;;;;7373082;19;20056;-59
2023/02/11 07:06:04;;;;;;;63.60;33.83;;;7.10;99.90;;;;;;7370145;19;20018;-59
2023/02/11 07:08:32;;;;;;;56.65;31.42;;;7.10;99.90;;;;;;7367558;19;20015;-61
2023/02/11 07:10:59;;;;;;;56.17;32.90;;;7.10;99.90;;;;;;7361785;19;20026;-61
2023/02/11 07:13:25;;;;;;;53.42;32.75;;;7.10;99.90;;;;;;7368884;19;20018;-62
2023/02/11 07:15:52;;;;;;;55.00;33.88;;;7.00;99.90;;;;;;7363806;19;20078;-60
2023/02/11 07:18:18;;;;;;;55.97;32.28;;;7.10;99.90;;;;;;7367195;19;20033;-61
2023/02/11 07:20:45;;;;;;;63.75;35.78;;;7.10;99.90;;;;;;7368671;19;20018;-61
2023/02/11 07:23:12;;;;;;;60.05;36.72;;;7.10;99.90;;;;;;7365118;19;20021;-59
2023/02/11 07:25:38;;;;;;;54.00;32.33;;;7.10;99.90;;;;;;7365486;19;20037;-60
2023/02/11 07:28:04;;;;;;;60.13;32.03;;;7.20;99.90;;;;;;7362725;19;20019;-60
2023/02/11 07:30:31;;;;;;;53.70;31.75;;;7.10;99.90;;;;;;7364386;19;20139;-59
2023/02/11 07:32:57;;;;;;;58.88;33.90;;;7.20;99.90;;;;;;7362548;19;20305;-61
2023/02/11 07:35:23;;;;;;;64.72;33.17;;;7.20;99.90;;;;;;7367974;19;20014;-62
2023/02/11 07:37:49;;;;;;;54.10;34.65;;;7.20;99.90;;;;;;7364315;19;20718;-62
2023/02/11 07:40:16;;;;;;;54.97;34.47;;;7.20;99.90;;;;;;7366206;19;20014;-60
2023/02/11 07:42:42;;;;;;;58.22;33.42;;;7.20;99.90;;;;;;7364569;19;20022;-59
2023/02/11 07:45:08;;;;;;;54.40;32.38;;;7.20;99.90;;;;;;7365921;19;20018;-60
2023/02/11 07:47:34;;;;;;;59.05;33.17;;;7.30;99.90;;;;;;7363716;19;20025;-58
2023/02/11 07:50:01;;;;;;;59.40;34.95;;;7.30;99.90;;;;;;7364431;19;20049;-60
2023/02/11 07:52:30;;;;;;;56.28;34.05;;;7.30;99.90;;;;;;7365229;19;20752;-62
2023/02/11 07:54:56;;;;;;;54.75;32.35;;;7.30;99.90;;;;;;7363565;19;20377;-60
2023/02/11 07:57:23;;;;;;;59.97;33.17;;;7.30;99.90;;;;;;7362516;19;20014;-60
2023/02/11 07:59:49;;;;;;;50.97;31.05;;;7.40;99.90;;;;;;7363367;19;20045;-58
2023/02/11 08:02:15;;;;;;;52.75;32.80;;;7.40;99.90;;;;;;7364684;19;20010;-59
2023/02/11 08:04:41;;;;;;;50.55;32.85;;;7.40;99.90;;;;;;7364541;19;20032;-59
2023/02/11 08:07:07;;;;;;;54.58;33.25;;;7.40;99.90;;;;;;7363914;19;20014;-59
2023/02/11 08:09:33;;;;;;;54.28;32.42;;;7.50;99.90;;;;;;7362774;19;20029;-60
2023/02/11 08:12:00;;;;;;;52.92;31.75;;;7.50;99.90;;;;;;7366893;19;20849;-59
2023/02/11 08:14:27;;;;;;;50.40;32.75;;;7.50;99.90;;;;;;7361711;19;20026;-61
2023/02/11 08:16:54;;;;;;;61.30;32.20;;;7.50;99.90;;;;;;7362370;19;20045;-61
2023/02/11 08:19:20;;;;;;;50.10;31.67;;;7.50;99.90;;;;;;7361435;19;20022;-62
2023/02/11 08:21:46;;;;;;;50.35;31.55;;;7.50;99.90;;;;;;7363145;19;20022;-58
2023/02/11 08:24:13;;;;;;;53.75;31.95;;;7.50;99.90;;;;;;7361639;19;20557;-58
2023/02/11 08:26:41;;;;;;;40.67;28.85;;;7.60;99.90;;;;;;7364108;19;20943;-63
2023/02/11 08:29:11;;;;;;;52.88;31.23;;;7.60;99.90;;;;;;7363708;19;20014;-61
2023/02/11 08:31:40;;;;;;;51.28;29.77;;;7.60;99.90;;;;;;7365932;19;20030;-60
2023/02/11 08:34:06;;;;;;;52.63;31.52;;;7.60;99.90;;;;;;7367046;19;20021;-58
2023/02/11 08:36:35;;;;;;;49.75;28.13;;;7.60;99.90;;;;;;7369095;19;20015;-61
2023/02/11 08:39:05;;;;;;;47.80;29.80;;;7.70;99.90;;;;;;7367485;19;20015;-61
2023/02/11 08:41:33;;;;;;;48.55;28.88;;;7.70;99.90;;;;;;7366475;19;20028;-61
2023/02/11 08:43:59;;;;;;;46.70;27.58;;;7.70;99.90;;;;;;7362008;19;20026;-61
2023/02/11 08:46:26;;;;;;;44.63;30.08;;;7.80;99.90;;;;;;7363229;19;20093;-59
2023/02/11 08:48:52;;;;;;;45.65;28.75;;;7.80;99.90;;;;;;7364110;19;20015;-59
2023/02/11 08:51:22;;;;;;;44.80;28.38;;;7.90;99.90;;;;;;7364657;19;20578;-59
2023/02/11 08:53:49;;;;;;;43.08;26.75;;;7.90;99.90;;;;;;7365853;19;20023;-60
2023/02/11 08:56:17;;;;;;;44.42;27.42;;;7.90;99.90;;;;;;7363463;19;20037;-60
2023/02/11 08:58:43;;;;;;;38.85;27.58;;;8.00;99.90;;;;;;7362242;19;20018;-61
2023/02/11 09:01:19;;;;;;;40.55;26.13;;;8.00;99.90;;;;;;7361646;19;20044;-62
2023/02/11 09:03:46;;;;;;;34.75;23.98;;;8.20;99.90;;;;;;7363301;19;20619;-61
2023/02/11 09:06:13;;;;;;;36.47;25.40;;;8.20;99.90;;;;;;7364168;19;20018;-62
2023/02/11 09:08:42;;;;;;;39.20;24.52;;;8.30;99.90;;;;;;7359728;19;20010;-60
2023/02/11 09:11:10;;;;;;;34.72;22.92;;;8.40;99.90;;;;;;7360322;19;20402;-60
2023/02/11 09:13:37;;;;;;;31.88;22.88;;;8.50;99.90;;;;;;7362543;19;20452;-60
2023/02/11 09:16:07;;;;;;;32.10;21.40;;;8.50;99.90;;;;;;7362306;19;20026;-60
2023/02/11 09:18:34;;;;;;;33.63;22.92;;;8.60;99.90;;;;;;7361124;19;20481;-59
2023/02/11 09:21:08;;;;;;;33.80;22.58;;;8.60;99.90;;;;;;7361471;19;20017;-59
2023/02/11 09:23:35;;;;;;;31.33;20.83;;;8.60;99.90;;;;;;7361507;19;20025;-60
2023/02/11 09:26:06;;;;;;;117.85;91.78;;;8.70;99.90;;;;;;7360524;19;20022;-55
2023/02/11 09:28:32;;;;;;;36.37;24.93;;;8.80;99.90;;;;;;7359384;19;20512;-57
2023/02/11 09:30:58;;;;;;;36.28;24.63;;;8.90;99.90;;;;;;7360606;19;20019;-55
2023/02/11 09:33:24;;;;;;;44.35;27.73;;;9.00;99.90;;;;;;7360032;19;20023;-56
2023/02/11 09:35:51;;;;;;;33.63;22.83;;;9.10;99.90;;;;;;7360416;19;20017;-56
2023/02/11 09:38:17;;;;;;;31.67;20.52;;;9.00;99.90;;;;;;7366110;19;20062;-55
2023/02/11 09:40:44;;;;;;;34.45;19.88;;;9.00;99.90;;;;;;7355728;19;20503;-57
2023/02/11 09:43:18;;;;;;;31.73;21.45;;;9.00;99.90;;;;;;7362061;19;20754;-54
2023/02/11 09:45:44;;;;;;;31.42;20.40;;;8.90;99.90;;;;;;7363197;19;20031;-56
2023/02/11 09:48:15;;;;;;;30.98;20.80;;;9.00;99.90;;;;;;7361924;19;20019;-54
2023/02/11 09:50:46;;;;;;;31.70;19.27;;;9.00;99.90;;;;;;7363770;19;20023;-54
2023/02/11 09:53:34;;;;;;;31.70;20.88;;;9.00;99.90;;;;;;7362833;19;20102;-55
2023/02/11 09:56:09;;;;;;;24.60;18.15;;;9.00;99.90;;;;;;7365948;19;20087;-57
2023/02/11 09:58:39;;;;;;;30.35;19.20;;;9.00;99.90;;;;;;7363208;19;20097;-53
2023/02/11 10:01:24;;;;;;;29.00;19.02;;;9.10;99.90;;;;;;7365644;19;20364;-54
2023/02/11 10:03:53;;;;;;;32.92;20.25;;;9.10;99.90;;;;;;7359585;19;20014;-53
2023/02/11 10:06:28;;;;;;;25.30;18.77;;;9.10;99.90;;;;;;7362346;19;20014;-60
2023/02/11 10:09:19;;;;;;;26.40;17.65;;;9.20;99.90;;;;;;7359817;19;20022;-60
2023/02/11 10:12:01;;;;;;;28.67;19.35;;;9.10;99.90;;;;;;7364283;19;20035;-60
2023/02/11 10:14:37;;;;;;;26.23;17.70;;;9.10;99.90;;;;;;7357696;19;20602;-59
2023/02/11 10:17:31;;;;;;;32.08;17.52;;;9.10;99.90;;;;;;7358821;19;20354;-60
2023/02/11 10:20:22;;;;;;;26.17;16.52;;;9.20;99.90;;;;;;7357793;19;20032;-61
2023/02/11 10:22:59;;;;;;;27.42;17.90;;;9.30;99.90;;;;;;7364492;19;20533;-60
2023/02/11 10:25:35;;;;;;;27.95;16.85;;;9.30;99.90;;;;;;7365163;19;20006;-62
2023/02/11 10:28:15;;;;;;;24.48;16.33;;;9.40;99.90;;;;;;7367948;19;20059;-62
2023/02/11 10:31:01;;;;;;;26.40;16.15;;;9.40;99.90;;;;;;7364807;19;20014;-60
2023/02/11 10:33:57;;;;;;;23.48;16.05;;;9.60;99.90;;;;;;7366660;19;20023;-60
2023/02/11 10:36:27;;;;;;;24.30;15.68;;;9.70;99.90;;;;;;7367354;19;20880;-60
2023/02/11 10:38:59;;;;;;;21.40;14.73;;;9.80;99.90;;;;;;7366324;19;20022;-62
2023/02/11 10:41:35;;;;;;;24.83;15.07;;;9.90;99.90;;;;;;7363491;19;20022;-62
2023/02/11 10:44:01;;;;;;;;;;;9.90;99.90;;;;;;7367899;19;20489;-62
2023/02/11 10:46:36;;;;;;;20.95;14.02;;;9.80;99.90;;;;;;7363906;19;20881;-62
2023/02/11 10:49:03;;;;;;;20.50;14.25;;;9.90;99.90;;;;;;7367745;19;20063;-62
2023/02/11 10:51:33;;;;;;;20.98;14.57;;;10.00;99.90;;;;;;7361791;19;20026;-63
2023/02/11 10:54:07;;;;;;;22.50;13.60;;;10.00;99.90;;;;;;7365339;19;20331;-63
2023/02/11 10:56:36;;;;;;;23.58;14.32;;;9.90;99.90;;;;;;7365026;19;20010;-61
2023/02/11 10:59:13;;;;;;;27.08;14.13;;;9.90;99.90;;;;;;7364959;19;20043;-63
2023/02/11 11:01:45;;;;;;;27.23;13.75;;;9.90;99.90;;;;;;7362417;19;20028;-61
2023/02/11 11:04:32;;;;;;;21.95;13.75;;;9.90;99.90;;;;;;7367763;19;20023;-61
2023/02/11 11:07:17;;;;;;;21.00;13.40;;;10.00;99.90;;;;;;7365818;19;20022;-60
2023/02/11 11:09:48;;;;;;;19.90;12.45;;;10.10;99.90;;;;;;7366755;19;20010;-61
2023/02/11 11:12:27;;;;;;;18.85;12.10;;;10.30;99.90;;;;;;7365326;19;20019;-61
2023/02/11 11:14:55;;;;;;;19.77;12.80;;;10.40;99.90;;;;;;7362691;19;20771;-60
2023/02/11 11:17:22;;;;;;;21.65;12.48;;;10.50;99.90;;;;;;7367810;19;20022;-61
2023/02/11 11:19:48;;;;;;;17.10;11.65;;;10.50;99.90;;;;;;7363783;19;20022;-63
2023/02/11 11:22:21;;;;;;;19.92;13.00;;;10.50;99.90;;;;;;7366536;19;20030;-61
2023/02/11 11:24:53;;;;;;;16.73;10.63;;;10.60;99.90;;;;;;7364807;19;20792;-63
2023/02/11 11:27:23;;;;;;;16.67;10.85;;;10.50;99.90;;;;;;7362568;19;20014;-63
2023/02/11 11:29:54;;;;;;;18.30;11.98;;;10.50;99.90;;;;;;7362748;19;20031;-63
2023/02/11 11:32:31;;;;;;;19.55;11.27;;;10.20;99.90;;;;;;7367902;19;20053;-61
2023/02/11 11:35:04;;;;;;;16.00;10.75;;;10.20;99.90;;;;;;7361639;19;20026;-63
2023/02/11 11:37:33;;;;;;;17.10;9.93;;;10.30;99.90;;;;;;7360195;19;20018;-64
2023/02/11 11:40:09;;;;;;;19.75;10.75;;;10.40;99.90;;;;;;7363440;19;20037;-63
2023/02/11 11:42:37;;;;;;;19.13;10.07;;;10.40;99.90;;;;;;7364446;19;20032;-63
2023/02/11 11:45:18;;;;;;;18.55;10.05;;;10.30;99.90;;;;;;7359962;19;20381;-63
2023/02/11 11:47:57;;;;;;;19.10;10.23;;;10.30;99.90;;;;;;7360851;19;20019;-63
2023/02/11 11:50:43;;;;;;;14.70;10.10;;;10.40;99.90;;;;;;7360815;19;20297;-61
2023/02/11 11:53:39;;;;;;;20.52;10.20;;;10.30;99.90;;;;;;7361799;19;20019;-61
2023/02/11 11:56:15;;;;;;;18.65;10.40;;;10.20;99.90;;;;;;7361079;19;20023;-61
2023/02/11 11:58:42;;;;;;;18.08;10.57;;;10.20;99.90;;;;;;7360967;19;20022;-61
2023/02/11 12:01:20;;;;;;;18.83;10.35;;;10.30;99.90;;;;;;7362446;19;20052;-61
2023/02/11 12:04:14;;;;;;;17.17;9.73;;;10.40;99.90;;;;;;7360157;19;20026;-61
2023/02/11 12:06:50;;;;;;;18.92;9.13;;;10.30;99.90;;;;;;7359795;19;20808;-60
2023/02/11 12:09:34;;;;;;;15.90;9.45;;;10.20;99.90;;;;;;7359428;19;20042;-61
2023/02/11 12:12:22;;;;;;;15.25;8.52;;;10.20;99.90;;;;;;7358881;19;20022;-61
2023/02/11 12:14:57;;;;;;;19.02;9.38;;;10.30;99.90;;;;;;7362067;19;20378;-63
2023/02/11 12:17:41;;;;;;;19.63;9.60;;;10.20;99.90;;;;;;7362806;19;20025;-61
2023/02/11 12:20:16;;;;;;;18.58;9.00;;;10.20;99.90;;;;;;7364367;19;20027;-60
2023/02/11 12:23:18;;;;;;;14.00;8.05;;;10.20;99.90;;;;;;7361491;19;20025;-60
2023/02/11 12:25:56;;;;;;;16.67;8.20;;;10.20;99.90;;;;;;7362462;19;20481;-61
2023/02/11 12:28:54;;;;;;;19.75;8.95;;;10.20;99.90;;;;;;7360990;19;20545;-60
2023/02/11 12:31:52;;;;;;;17.30;8.50;;;10.20;99.90;;;;;;7363019;19;20838;-60
2023/02/11 12:34:57;;;;;;;17.83;7.88;;;10.10;99.90;;;;;;7364749;19;20019;-63
2023/02/11 12:37:46;;;;;;;15.18;8.50;;;10.10;99.90;;;;;;7357947;19;20502;-60
2023/02/11 12:40:50;;;;;;;13.10;7.78;;;10.20;99.90;;;;;;7361704;19;20048;-59
2023/02/11 12:43:23;;;;;;;18.05;7.43;;;10.20;99.90;;;;;;7360742;19;20475;-62
2023/02/11 12:46:03;;;;;;;13.27;7.15;;;10.20;99.90;;;;;;7360346;19;20696;-62
2023/02/11 12:48:39;;;;;;;14.82;6.15;;;10.20;99.90;;;;;;7361755;19;20019;-60
2023/02/11 12:51:20;;;;;;;13.00;6.80;;;10.20;99.90;;;;;;7361665;19;20061;-63
2023/02/11 12:54:09;;;;;;;15.60;6.88;;;10.20;99.90;;;;;;7361255;19;20026;-61
2023/02/11 12:56:50;;;;;;;13.55;6.55;;;10.20;99.90;;;;;;7362838;19;20025;-61
2023/02/11 12:59:43;;;;;;;16.55;7.07;;;10.30;99.90;;;;;;7363697;19;20391;-63
2023/02/11 13:02:38;;;;;;;16.75;6.38;;;10.30;99.90;;;;;;7364993;19;20014;-62
2023/02/11 13:05:41;;;;;;;14.90;5.70;;;10.20;99.90;;;;;;7361974;19;20403;-63